sensor_id;sensor_type;location;lat;lon;timestamp;pressure;altitude;pressure_sealevel;temperature;humidity
1652;BME280;823;49.028;8.454;2023-04-30T00:02:12;100789.53;;;16.43;55.28
1652;BME280;823;49.028;8.454;2023-04-30T00:07:12;100798.38;;;16.40;55.24
1652;BME280;823;49.028;8.454;2023-04-30T00:12:13;100798.28;;;16.42;55.62
1652;BME280;823;49.028;8.454;2023-04-30T00:17:13;100795.09;;;16.37;55.89
1652;BME280;823;49.028;8.454;2023-04-30T00:22:14;100794.41;;;16.33;55.49
1652;BME280;823;49.028;8.454;2023-04-30T00:27:14;100801.44;;;16.31;55.73
1652;BME280;823;49.028;8.454;2023-04-30T00:32:14;100801.53;;;16.29;55.42
1652;BME280;823;49.028;8.454;2023-04-30T00:37:15;100810.28;;;16.28;55.75
1652;BME280;823;49.028;8.454;2023-04-30T00:42:15;100808.75;;;16.24;55.74
1652;BME280;823;49.028;8.454;2023-04-30T00:47:15;100813.03;;;16.25;55.59
1652;BME280;823;49.028;8.454;2023-04-30T00:52:16;100802.69;;;16.24;55.54
1652;BME280;823;49.028;8.454;2023-04-30T00:57:16;100794.31;;;16.17;55.48
1652;BME280;823;49.028;8.454;2023-04-30T01:02:18;100794.72;;;16.09;55.06
1652;BME280;823;49.028;8.454;2023-04-30T01:07:19;100795.94;;;16.02;55.13
1652;BME280;823;49.028;8.454;2023-04-30T01:12:28;100793.31;;;16.02;55.51
1652;BME280;823;49.028;8.454;2023-04-30T01:17:40;100795.53;;;15.92;56.30
1652;BME280;823;49.028;8.454;2023-04-30T01:22:54;100795.31;;;15.97;56.02
1652;BME280;823;49.028;8.454;2023-04-30T01:33:02;100787.94;;;15.88;55.62
1652;BME280;823;49.028;8.454;2023-04-30T01:43:50;100783.16;;;15.78;55.81
1652;BME280;823;49.028;8.454;2023-04-30T01:59:27;100779.19;;;15.70;55.79
1652;BME280;823;49.028;8.454;2023-04-30T02:04:28;100780.00;;;15.72;55.36
1652;BME280;823;49.028;8.454;2023-04-30T02:09:28;100781.72;;;15.71;55.73
1652;BME280;823;49.028;8.454;2023-04-30T02:14:30;100778.06;;;15.75;55.77
1652;BME280;823;49.028;8.454;2023-04-30T02:19:30;100791.09;;;15.75;55.73
1652;BME280;823;49.028;8.454;2023-04-30T02:24:31;100783.50;;;15.71;55.61
1652;BME280;823;49.028;8.454;2023-04-30T02:29:31;100778.22;;;15.72;55.44
1652;BME280;823;49.028;8.454;2023-04-30T02:34:31;100775.06;;;15.65;55.44
1652;BME280;823;49.028;8.454;2023-04-30T02:39:32;100781.72;;;15.71;55.32
1652;BME280;823;49.028;8.454;2023-04-30T02:44:33;100778.53;;;15.66;55.27
1652;BME280;823;49.028;8.454;2023-04-30T02:49:33;100785.56;;;15.64;55.55
1652;BME280;823;49.028;8.454;2023-04-30T02:54:33;100782.69;;;15.70;55.50
1652;BME280;823;49.028;8.454;2023-04-30T02:59:33;100781.81;;;15.70;55.26
1652;BME280;823;49.028;8.454;2023-04-30T03:04:34;100780.91;;;15.71;54.94
1652;BME280;823;49.028;8.454;2023-04-30T03:09:35;100777.38;;;15.72;55.30
1652;BME280;823;49.028;8.454;2023-04-30T03:14:35;100780.81;;;15.72;55.69
1652;BME280;823;49.028;8.454;2023-04-30T03:19:36;100780.91;;;15.71;55.28
1652;BME280;823;49.028;8.454;2023-04-30T03:24:36;100779.13;;;15.71;55.21
1652;BME280;823;49.028;8.454;2023-04-30T03:29:37;100765.59;;;15.45;55.17
1652;BME280;823;49.028;8.454;2023-04-30T03:34:37;100767.13;;;15.49;55.14
1652;BME280;823;49.028;8.454;2023-04-30T03:39:37;100769.53;;;15.35;55.05
1652;BME280;823;49.028;8.454;2023-04-30T03:44:38;100755.75;;;15.33;54.75
1652;BME280;823;49.028;8.454;2023-04-30T03:49:38;100759.25;;;15.32;54.74
1652;BME280;823;49.028;8.454;2023-04-30T03:54:38;100761.22;;;15.27;54.36
1652;BME280;823;49.028;8.454;2023-04-30T03:59:39;100765.53;;;15.28;54.29
1652;BME280;823;49.028;8.454;2023-04-30T04:04:41;100763.84;;;15.27;54.27
1652;BME280;823;49.028;8.454;2023-04-30T04:09:41;100765.31;;;15.32;54.38
1652;BME280;823;49.028;8.454;2023-04-30T04:14:41;100771.66;;;15.27;54.19
1652;BME280;823;49.028;8.454;2023-04-30T04:19:42;100773.28;;;15.29;53.92
1652;BME280;823;49.028;8.454;2023-04-30T04:24:42;100769.47;;;15.37;53.89
1652;BME280;823;49.028;8.454;2023-04-30T04:29:43;100783.91;;;15.44;53.63
1652;BME280;823;49.028;8.454;2023-04-30T04:34:43;100781.34;;;15.42;53.92
1652;BME280;823;49.028;8.454;2023-04-30T04:39:45;100785.50;;;15.46;53.68
1652;BME280;823;49.028;8.454;2023-04-30T04:44:45;100786.84;;;15.55;53.64
1652;BME280;823;49.028;8.454;2023-04-30T04:49:46;100782.84;;;15.48;53.58
1652;BME280;823;49.028;8.454;2023-04-30T04:54:46;100788.41;;;15.40;53.23
1652;BME280;823;49.028;8.454;2023-04-30T04:59:46;100796.28;;;15.58;52.88
1652;BME280;823;49.028;8.454;2023-04-30T05:04:47;100789.13;;;15.44;53.39
1652;BME280;823;49.028;8.454;2023-04-30T05:09:49;100796.06;;;15.62;52.81
1652;BME280;823;49.028;8.454;2023-04-30T05:14:50;100797.69;;;15.65;53.01
1652;BME280;823;49.028;8.454;2023-04-30T05:19:51;100798.84;;;15.77;52.94
1652;BME280;823;49.028;8.454;2023-04-30T05:24:51;100795.00;;;15.86;52.70
1652;BME280;823;49.028;8.454;2023-04-30T05:29:52;100799.06;;;15.72;52.03
1652;BME280;823;49.028;8.454;2023-04-30T05:34:52;100796.38;;;15.93;51.82
1652;BME280;823;49.028;8.454;2023-04-30T05:39:52;100796.06;;;15.81;51.97
1652;BME280;823;49.028;8.454;2023-04-30T05:44:54;100798.75;;;15.80;51.78
1652;BME280;823;49.028;8.454;2023-04-30T05:49:54;100800.78;;;15.73;52.15
1652;BME280;823;49.028;8.454;2023-04-30T05:54:57;100796.97;;;15.80;51.27
1652;BME280;823;49.028;8.454;2023-04-30T05:59:57;100802.59;;;15.90;51.23
1652;BME280;823;49.028;8.454;2023-04-30T06:04:57;100806.66;;;15.96;51.83
1652;BME280;823;49.028;8.454;2023-04-30T06:09:58;100804.47;;;16.23;50.89
1652;BME280;823;49.028;8.454;2023-04-30T06:14:58;100800.38;;;16.35;50.57
1652;BME280;823;49.028;8.454;2023-04-30T06:19:58;100796.63;;;16.41;50.60
1652;BME280;823;49.028;8.454;2023-04-30T06:25:01;100790.91;;;16.50;50.00
1652;BME280;823;49.028;8.454;2023-04-30T06:30:02;100789.91;;;16.86;49.54
1652;BME280;823;49.028;8.454;2023-04-30T06:35:03;100791.31;;;16.93;48.36
1652;BME280;823;49.028;8.454;2023-04-30T06:40:05;100794.59;;;16.97;48.16
1652;BME280;823;49.028;8.454;2023-04-30T06:45:06;100805.59;;;17.04;49.18
1652;BME280;823;49.028;8.454;2023-04-30T06:50:08;100793.59;;;17.15;48.36
1652;BME280;823;49.028;8.454;2023-04-30T06:55:08;100788.56;;;17.44;47.70
1652;BME280;823;49.028;8.454;2023-04-30T07:00:09;100792.78;;;17.63;46.59
1652;BME280;823;49.028;8.454;2023-04-30T07:05:10;100792.25;;;17.72;46.78
1652;BME280;823;49.028;8.454;2023-04-30T07:10:11;100789.69;;;17.86;46.29
1652;BME280;823;49.028;8.454;2023-04-30T07:15:11;100810.09;;;18.12;46.52
1652;BME280;823;49.028;8.454;2023-04-30T07:20:12;100796.31;;;18.08;47.00
1652;BME280;823;49.028;8.454;2023-04-30T07:25:15;100792.13;;;18.36;45.47
1652;BME280;823;49.028;8.454;2023-04-30T07:30:16;100792.75;;;18.40;44.85
1652;BME280;823;49.028;8.454;2023-04-30T07:35:16;100787.25;;;18.44;45.48
1652;BME280;823;49.028;8.454;2023-04-30T07:40:17;100784.75;;;18.57;44.88
1652;BME280;823;49.028;8.454;2023-04-30T07:45:17;100780.72;;;18.66;43.99
1652;BME280;823;49.028;8.454;2023-04-30T07:50:18;100775.28;;;18.83;44.23
1652;BME280;823;49.028;8.454;2023-04-30T07:55:18;100783.66;;;18.90;43.11
1652;BME280;823;49.028;8.454;2023-04-30T08:00:18;100784.44;;;19.05;43.52
1652;BME280;823;49.028;8.454;2023-04-30T08:05:19;100782.78;;;19.04;42.48
1652;BME280;823;49.028;8.454;2023-04-30T08:10:19;100771.84;;;18.97;43.06
1652;BME280;823;49.028;8.454;2023-04-30T08:15:20;100780.69;;;19.23;41.79
1652;BME280;823;49.028;8.454;2023-04-30T08:20:23;100783.78;;;19.30;41.52
1652;BME280;823;49.028;8.454;2023-04-30T08:25:23;100785.63;;;19.43;42.37
1652;BME280;823;49.028;8.454;2023-04-30T08:30:24;100784.81;;;19.28;40.71
1652;BME280;823;49.028;8.454;2023-04-30T08:35:24;100791.03;;;19.39;41.76
1652;BME280;823;49.028;8.454;2023-04-30T08:40:25;100791.25;;;19.36;41.50
1652;BME280;823;49.028;8.454;2023-04-30T08:45:26;100785.84;;;19.25;42.23
1652;BME280;823;49.028;8.454;2023-04-30T08:50:27;100784.06;;;19.53;43.13
1652;BME280;823;49.028;8.454;2023-04-30T08:55:29;100782.44;;;19.65;41.62
1652;BME280;823;49.028;8.454;2023-04-30T09:00:31;100791.00;;;19.81;40.13
1652;BME280;823;49.028;8.454;2023-04-30T09:05:32;100784.28;;;19.77;39.38
1652;BME280;823;49.028;8.454;2023-04-30T09:10:32;100780.38;;;20.10;39.01
1652;BME280;823;49.028;8.454;2023-04-30T09:15:35;100779.03;;;20.30;37.79
1652;BME280;823;49.028;8.454;2023-04-30T09:20:36;100777.34;;;20.42;37.22
1652;BME280;823;49.028;8.454;2023-04-30T09:25:41;100775.56;;;20.55;36.14
1652;BME280;823;49.028;8.454;2023-04-30T09:30:42;100779.25;;;20.40;37.31
1652;BME280;823;49.028;8.454;2023-04-30T09:35:42;100773.16;;;20.78;35.39
1652;BME280;823;49.028;8.454;2023-04-30T09:40:42;100772.63;;;20.21;36.76
1652;BME280;823;49.028;8.454;2023-04-30T09:45:45;100781.88;;;20.40;36.26
1652;BME280;823;49.028;8.454;2023-04-30T09:50:50;100764.22;;;20.42;35.24
1652;BME280;823;49.028;8.454;2023-04-30T09:55:51;100775.41;;;20.71;35.67
1652;BME280;823;49.028;8.454;2023-04-30T10:00:52;100772.75;;;20.71;35.80
1652;BME280;823;49.028;8.454;2023-04-30T10:05:54;100755.03;;;20.99;34.45
1652;BME280;823;49.028;8.454;2023-04-30T10:10:58;100761.53;;;21.06;34.61
1652;BME280;823;49.028;8.454;2023-04-30T10:16:06;100763.19;;;21.20;33.60
1652;BME280;823;49.028;8.454;2023-04-30T10:21:11;100756.63;;;21.02;32.73
1652;BME280;823;49.028;8.454;2023-04-30T10:26:14;100756.50;;;20.90;33.12
1652;BME280;823;49.028;8.454;2023-04-30T10:31:16;100753.81;;;20.79;32.92
1652;BME280;823;49.028;8.454;2023-04-30T10:36:36;100748.97;;;20.86;34.12
1652;BME280;823;49.028;8.454;2023-04-30T10:41:39;100738.69;;;21.07;33.35
1652;BME280;823;49.028;8.454;2023-04-30T10:46:39;100732.03;;;20.90;33.51
1652;BME280;823;49.028;8.454;2023-04-30T10:51:47;100724.25;;;20.88;32.87
1652;BME280;823;49.028;8.454;2023-04-30T10:56:50;100727.34;;;20.56;32.96
1652;BME280;823;49.028;8.454;2023-04-30T11:02:00;100725.00;;;20.65;33.73
1652;BME280;823;49.028;8.454;2023-04-30T11:07:07;100728.13;;;20.96;32.24
1652;BME280;823;49.028;8.454;2023-04-30T11:12:11;100727.47;;;21.05;31.41
1652;BME280;823;49.028;8.454;2023-04-30T11:17:21;100714.03;;;21.45;31.50
1652;BME280;823;49.028;8.454;2023-04-30T11:22:23;100712.34;;;21.44;31.05
1652;BME280;823;49.028;8.454;2023-04-30T11:27:25;100704.69;;;21.65;30.16
1652;BME280;823;49.028;8.454;2023-04-30T11:32:32;100701.13;;;21.77;30.51
1652;BME280;823;49.028;8.454;2023-04-30T11:37:41;100700.13;;;21.56;30.65
1652;BME280;823;49.028;8.454;2023-04-30T11:42:45;100702.66;;;21.69;29.61
1652;BME280;823;49.028;8.454;2023-04-30T11:47:50;100691.72;;;21.86;30.35
1652;BME280;823;49.028;8.454;2023-04-30T11:52:52;100686.59;;;21.96;30.46
1652;BME280;823;49.028;8.454;2023-04-30T11:57:55;100687.91;;;22.02;29.31
1652;BME280;823;49.028;8.454;2023-04-30T12:02:58;100683.00;;;22.20;29.87
1652;BME280;823;49.028;8.454;2023-04-30T12:08:00;100680.63;;;22.17;28.65
1652;BME280;823;49.028;8.454;2023-04-30T12:13:03;100677.59;;;21.99;28.64
1652;BME280;823;49.028;8.454;2023-04-30T12:18:13;100680.38;;;22.08;29.63
1652;BME280;823;49.028;8.454;2023-04-30T12:23:14;100687.53;;;21.95;30.10
1652;BME280;823;49.028;8.454;2023-04-30T12:28:15;100675.69;;;21.89;29.94
1652;BME280;823;49.028;8.454;2023-04-30T12:33:16;100664.31;;;22.11;31.08
1652;BME280;823;49.028;8.454;2023-04-30T12:38:17;100669.16;;;22.40;31.26
1652;BME280;823;49.028;8.454;2023-04-30T12:43:17;100667.09;;;22.55;30.28
1652;BME280;823;49.028;8.454;2023-04-30T12:48:20;100669.41;;;22.49;28.54
1652;BME280;823;49.028;8.454;2023-04-30T12:53:22;100675.13;;;22.42;29.52
1652;BME280;823;49.028;8.454;2023-04-30T12:58:29;100659.75;;;22.25;28.93
1652;BME280;823;49.028;8.454;2023-04-30T13:03:29;100653.28;;;22.29;29.37
1652;BME280;823;49.028;8.454;2023-04-30T13:08:30;100646.59;;;22.02;30.18
1652;BME280;823;49.028;8.454;2023-04-30T13:13:30;100645.28;;;21.85;30.95
1652;BME280;823;49.028;8.454;2023-04-30T13:18:31;100643.94;;;21.91;28.89
1652;BME280;823;49.028;8.454;2023-04-30T13:23:32;100645.88;;;22.11;29.86
1652;BME280;823;49.028;8.454;2023-04-30T13:28:32;100643.00;;;22.15;29.16
1652;BME280;823;49.028;8.454;2023-04-30T13:33:32;100639.56;;;22.37;29.16
1652;BME280;823;49.028;8.454;2023-04-30T13:38:34;100629.19;;;22.68;28.82
1652;BME280;823;49.028;8.454;2023-04-30T13:43:35;100615.38;;;22.87;28.13
1652;BME280;823;49.028;8.454;2023-04-30T13:48:37;100613.69;;;22.97;27.41
1652;BME280;823;49.028;8.454;2023-04-30T13:53:38;100613.91;;;22.94;28.43
1652;BME280;823;49.028;8.454;2023-04-30T13:58:39;100604.03;;;22.64;27.88
1652;BME280;823;49.028;8.454;2023-04-30T14:03:39;100592.06;;;22.71;28.45
1652;BME280;823;49.028;8.454;2023-04-30T14:08:40;100601.09;;;22.45;28.01
1652;BME280;823;49.028;8.454;2023-04-30T14:13:40;100595.94;;;22.33;28.09
1652;BME280;823;49.028;8.454;2023-04-30T14:18:41;100602.91;;;22.22;28.48
1652;BME280;823;49.028;8.454;2023-04-30T14:23:41;100605.06;;;21.94;28.38
1652;BME280;823;49.028;8.454;2023-04-30T14:28:45;100588.28;;;21.84;29.04
1652;BME280;823;49.028;8.454;2023-04-30T14:33:45;100579.94;;;21.90;28.39
1652;BME280;823;49.028;8.454;2023-04-30T14:38:45;100575.63;;;21.89;28.35
1652;BME280;823;49.028;8.454;2023-04-30T14:43:46;100561.84;;;21.97;28.84
1652;BME280;823;49.028;8.454;2023-04-30T14:48:46;100560.53;;;22.14;29.56
1652;BME280;823;49.028;8.454;2023-04-30T14:53:47;100554.78;;;22.09;28.89
1652;BME280;823;49.028;8.454;2023-04-30T14:58:47;100554.16;;;22.28;28.72
1652;BME280;823;49.028;8.454;2023-04-30T15:03:48;100550.09;;;22.35;28.00
1652;BME280;823;49.028;8.454;2023-04-30T15:08:48;100552.09;;;22.32;28.94
1652;BME280;823;49.028;8.454;2023-04-30T15:13:49;100553.19;;;22.18;28.26
1652;BME280;823;49.028;8.454;2023-04-30T15:18:49;100547.00;;;22.07;28.69
1652;BME280;823;49.028;8.454;2023-04-30T15:23:50;100537.50;;;22.27;28.80
1652;BME280;823;49.028;8.454;2023-04-30T15:28:50;100533.22;;;22.04;28.96
1652;BME280;823;49.028;8.454;2023-04-30T15:33:50;100527.03;;;21.93;28.87
1652;BME280;823;49.028;8.454;2023-04-30T15:38:51;100536.31;;;22.20;28.89
1652;BME280;823;49.028;8.454;2023-04-30T15:43:51;100524.50;;;22.03;29.19
1652;BME280;823;49.028;8.454;2023-04-30T15:48:51;100523.53;;;21.93;28.69
1652;BME280;823;49.028;8.454;2023-04-30T15:53:51;100514.22;;;22.00;29.11
1652;BME280;823;49.028;8.454;2023-04-30T15:58:53;100505.69;;;22.08;28.70
1652;BME280;823;49.028;8.454;2023-04-30T16:03:53;100507.63;;;21.83;30.25
1652;BME280;823;49.028;8.454;2023-04-30T16:08:53;100516.25;;;21.85;30.12
1652;BME280;823;49.028;8.454;2023-04-30T16:13:54;100506.66;;;21.96;29.39
1652;BME280;823;49.028;8.454;2023-04-30T16:18:55;100498.78;;;21.84;29.51
1652;BME280;823;49.028;8.454;2023-04-30T16:23:55;100498.63;;;21.97;29.10
1652;BME280;823;49.028;8.454;2023-04-30T16:28:56;100488.00;;;21.87;29.50
1652;BME280;823;49.028;8.454;2023-04-30T16:33:56;100482.63;;;22.00;30.01
1652;BME280;823;49.028;8.454;2023-04-30T16:38:56;100471.47;;;21.97;29.40
1652;BME280;823;49.028;8.454;2023-04-30T16:43:57;100470.66;;;21.96;29.39
1652;BME280;823;49.028;8.454;2023-04-30T16:48:58;100471.94;;;22.02;29.59
1652;BME280;823;49.028;8.454;2023-04-30T16:53:58;100469.06;;;22.05;29.54
1652;BME280;823;49.028;8.454;2023-04-30T16:58:58;100461.66;;;21.87;30.48
1652;BME280;823;49.028;8.454;2023-04-30T17:03:59;100460.44;;;22.03;30.36
1652;BME280;823;49.028;8.454;2023-04-30T17:08:59;100455.78;;;21.95;30.20
1652;BME280;823;49.028;8.454;2023-04-30T17:13:59;100463.94;;;21.92;30.31
1652;BME280;823;49.028;8.454;2023-04-30T17:19:00;100463.09;;;21.91;30.71
1652;BME280;823;49.028;8.454;2023-04-30T17:24:00;100455.94;;;21.93;30.89
1652;BME280;823;49.028;8.454;2023-04-30T17:29:00;100462.50;;;21.99;31.56
1652;BME280;823;49.028;8.454;2023-04-30T17:34:01;100465.38;;;21.85;31.25
1652;BME280;823;49.028;8.454;2023-04-30T17:39:01;100466.84;;;21.66;31.35
1652;BME280;823;49.028;8.454;2023-04-30T17:44:04;100465.03;;;21.67;31.96
1652;BME280;823;49.028;8.454;2023-04-30T17:49:04;100473.88;;;21.54;32.14
1652;BME280;823;49.028;8.454;2023-04-30T17:54:05;100472.22;;;21.42;32.49
1652;BME280;823;49.028;8.454;2023-04-30T17:59:06;100478.16;;;21.33;32.78
1652;BME280;823;49.028;8.454;2023-04-30T18:04:07;100475.28;;;21.24;33.52
1652;BME280;823;49.028;8.454;2023-04-30T18:09:07;100487.56;;;21.13;34.17
1652;BME280;823;49.028;8.454;2023-04-30T18:14:08;100486.22;;;20.96;35.08
1652;BME280;823;49.028;8.454;2023-04-30T18:19:08;100482.13;;;20.80;36.26
1652;BME280;823;49.028;8.454;2023-04-30T18:24:08;100489.44;;;20.64;37.95
1652;BME280;823;49.028;8.454;2023-04-30T18:29:09;100487.31;;;20.45;37.76
1652;BME280;823;49.028;8.454;2023-04-30T18:34:10;100490.44;;;20.25;37.15
1652;BME280;823;49.028;8.454;2023-04-30T18:39:12;100481.22;;;20.20;38.26
1652;BME280;823;49.028;8.454;2023-04-30T18:44:12;100478.13;;;20.02;39.49
1652;BME280;823;49.028;8.454;2023-04-30T18:49:12;100477.03;;;19.80;41.03
1652;BME280;823;49.028;8.454;2023-04-30T18:54:13;100483.84;;;19.57;41.29
1652;BME280;823;49.028;8.454;2023-04-30T18:59:13;100487.84;;;19.37;41.85
1652;BME280;823;49.028;8.454;2023-04-30T19:04:14;100501.28;;;19.19;42.43
1652;BME280;823;49.028;8.454;2023-04-30T19:09:15;100497.06;;;19.04;41.37
1652;BME280;823;49.028;8.454;2023-04-30T19:14:16;100495.50;;;18.87;42.16
1652;BME280;823;49.028;8.454;2023-04-30T19:19:16;100494.13;;;18.68;43.26
1652;BME280;823;49.028;8.454;2023-04-30T19:24:17;100491.25;;;18.59;44.11
1652;BME280;823;49.028;8.454;2023-04-30T19:29:17;100501.25;;;18.39;44.32
1652;BME280;823;49.028;8.454;2023-04-30T19:34:18;100504.34;;;18.31;44.67
1652;BME280;823;49.028;8.454;2023-04-30T19:39:18;100503.38;;;18.19;44.69
1652;BME280;823;49.028;8.454;2023-04-30T19:44:19;100507.22;;;17.99;45.64
1652;BME280;823;49.028;8.454;2023-04-30T19:49:19;100509.53;;;17.90;46.94
1652;BME280;823;49.028;8.454;2023-04-30T19:54:20;100503.31;;;17.92;46.38
1652;BME280;823;49.028;8.454;2023-04-30T19:59:20;100515.47;;;17.93;46.88
1652;BME280;823;49.028;8.454;2023-04-30T20:04:21;100516.75;;;17.72;46.83
1652;BME280;823;49.028;8.454;2023-04-30T20:09:22;100506.56;;;17.67;47.00
1652;BME280;823;49.028;8.454;2023-04-30T20:14:22;100512.16;;;17.61;46.84
1652;BME280;823;49.028;8.454;2023-04-30T20:19:23;100498.88;;;17.49;48.06
1652;BME280;823;49.028;8.454;2023-04-30T20:24:24;100507.03;;;17.45;48.02
1652;BME280;823;49.028;8.454;2023-04-30T20:29:24;100504.03;;;17.36;48.34
1652;BME280;823;49.028;8.454;2023-04-30T20:34:25;100504.56;;;17.27;48.18
1652;BME280;823;49.028;8.454;2023-04-30T20:39:25;100496.63;;;17.14;49.00
1652;BME280;823;49.028;8.454;2023-04-30T20:44:25;100492.41;;;17.12;48.74
1652;BME280;823;49.028;8.454;2023-04-30T20:49:27;100492.84;;;17.04;49.74
1652;BME280;823;49.028;8.454;2023-04-30T20:54:27;100493.75;;;16.89;50.08
1652;BME280;823;49.028;8.454;2023-04-30T20:59:29;100500.91;;;16.85;50.47
1652;BME280;823;49.028;8.454;2023-04-30T21:04:29;100498.72;;;16.77;50.25
1652;BME280;823;49.028;8.454;2023-04-30T21:09:30;100489.56;;;16.70;50.62
1652;BME280;823;49.028;8.454;2023-04-30T21:14:31;100496.06;;;16.63;50.78
1652;BME280;823;49.028;8.454;2023-04-30T21:19:33;100493.03;;;16.55;50.81
1652;BME280;823;49.028;8.454;2023-04-30T21:24:33;100488.50;;;16.42;51.14
1652;BME280;823;49.028;8.454;2023-04-30T21:29:34;100474.25;;;16.32;51.33
1652;BME280;823;49.028;8.454;2023-04-30T21:34:34;100477.97;;;16.28;50.93
1652;BME280;823;49.028;8.454;2023-04-30T21:39:34;100471.25;;;16.08;51.90
1652;BME280;823;49.028;8.454;2023-04-30T21:44:35;100465.09;;;16.09;51.64
1652;BME280;823;49.028;8.454;2023-04-30T21:49:35;100468.22;;;15.99;52.38
1652;BME280;823;49.028;8.454;2023-04-30T21:54:36;100459.97;;;15.91;52.07
1652;BME280;823;49.028;8.454;2023-04-30T21:59:36;100468.19;;;15.83;52.25
1652;BME280;823;49.028;8.454;2023-04-30T22:04:36;100467.16;;;15.70;52.76
1652;BME280;823;49.028;8.454;2023-04-30T22:09:37;100461.06;;;15.54;52.88
1652;BME280;823;49.028;8.454;2023-04-30T22:14:37;100460.28;;;15.52;52.88
1652;BME280;823;49.028;8.454;2023-04-30T22:19:38;100456.16;;;15.47;52.71
1652;BME280;823;49.028;8.454;2023-04-30T22:24:38;100447.59;;;15.45;52.98
1652;BME280;823;49.028;8.454;2023-04-30T22:29:39;100450.84;;;15.33;53.27
1652;BME280;823;49.028;8.454;2023-04-30T22:34:40;100454.63;;;15.27;53.69
1652;BME280;823;49.028;8.454;2023-04-30T22:39:40;100436.59;;;15.23;53.84
1652;BME280;823;49.028;8.454;2023-04-30T22:44:42;100424.81;;;15.15;54.44
1652;BME280;823;49.028;8.454;2023-04-30T22:49:43;100431.00;;;15.13;54.24
1652;BME280;823;49.028;8.454;2023-04-30T22:54:44;100427.41;;;15.15;54.13
1652;BME280;823;49.028;8.454;2023-04-30T22:59:45;100421.59;;;15.10;53.99
1652;BME280;823;49.028;8.454;2023-04-30T23:04:45;100424.19;;;15.10;54.04
1652;BME280;823;49.028;8.454;2023-04-30T23:09:46;100423.75;;;15.02;53.97
1652;BME280;823;49.028;8.454;2023-04-30T23:14:46;100419.09;;;14.91;53.97
1652;BME280;823;49.028;8.454;2023-04-30T23:19:46;100417.94;;;14.79;53.66
1652;BME280;823;49.028;8.454;2023-04-30T23:24:47;100414.88;;;14.89;53.38
1652;BME280;823;49.028;8.454;2023-04-30T23:29:47;100405.75;;;14.97;53.23
1652;BME280;823;49.028;8.454;2023-04-30T23:34:47;100400.78;;;14.93;53.46
1652;BME280;823;49.028;8.454;2023-04-30T23:39:49;100398.34;;;14.90;53.35
1652;BME280;823;49.028;8.454;2023-04-30T23:44:49;100390.53;;;14.90;53.92
1652;BME280;823;49.028;8.454;2023-04-30T23:49:49;100391.75;;;14.82;53.68
1652;BME280;823;49.028;8.454;2023-04-30T23:54:50;100391.63;;;14.86;54.09
1652;BME280;823;49.028;8.454;2023-04-30T23:59:50;100378.91;;;14.79;53.77
